Time;durP1;ratioP1;P1;durP2;ratioP2;P2;SDS_P1;SDS_P2;PMS_P1;PMS_P2;Temp;Humidity;BMP_temperature;BMP_pressure;BME280_temperature;BME280_humidity;BME280_pressure;Samples;Min_cycle;Max_cycle;Signal;HPM_P1;HPM_P2
2021/01/18 00:01:34;;;;;;;17.23;9.90;;;2.70;99.90;;;;;;5078299;28;20568;-71
2021/01/18 00:04:00;;;;;;;16.73;10.37;;;2.70;99.90;;;;;;5074291;28;20564;-71
2021/01/18 00:06:27;;;;;;;14.43;10.00;;;2.80;99.90;;;;;;5077055;28;20593;-73
2021/01/18 00:08:54;;;;;;;13.73;10.17;;;2.70;99.90;;;;;;5090649;28;20449;-71
2021/01/18 00:11:21;;;;;;;17.83;9.90;;;2.80;99.90;;;;;;5070402;28;20465;-72
2021/01/18 00:13:50;;;;;;;14.80;9.47;;;2.70;99.90;;;;;;5074540;28;20470;-71
2021/01/18 00:16:17;;;;;;;16.30;10.53;;;2.70;99.90;;;;;;5069971;28;20542;-72
2021/01/18 00:18:43;;;;;;;18.33;11.32;;;2.70;99.90;;;;;;5069401;28;20485;-73
2021/01/18 00:21:10;;;;;;;17.77;10.50;;;2.70;99.90;;;;;;5069679;28;20228;-71
2021/01/18 00:23:37;;;;;;;16.80;11.57;;;2.70;99.90;;;;;;5090817;28;20519;-72
2021/01/18 00:26:04;;;;;;;14.97;9.90;;;2.70;99.90;;;;;;5077865;28;20499;-73
2021/01/18 00:28:31;;;;;;;14.23;10.80;;;2.60;99.90;;;;;;5090144;28;20499;-72
2021/01/18 00:30:59;;;;;;;15.13;10.37;;;2.60;99.90;;;;;;5084603;28;20537;-72
2021/01/18 00:33:25;;;;;;;17.47;11.70;;;2.50;99.90;;;;;;5070011;28;20534;-72
2021/01/18 00:35:52;;;;;;;16.70;10.53;;;2.50;99.90;;;;;;5070199;28;20475;-71
2021/01/18 00:38:18;;;;;;;20.47;10.80;;;2.50;99.90;;;;;;5070356;28;20824;-72
2021/01/18 00:40:44;;;;;;;13.40;9.73;;;2.60;99.90;;;;;;5070164;28;20451;-71
2021/01/18 00:43:11;;;;;;;18.63;10.73;;;2.60;99.90;;;;;;5075318;28;20472;-72
2021/01/18 00:45:38;;;;;;;11.43;9.10;;;2.60;99.90;;;;;;5083153;28;20910;-71
2021/01/18 00:48:06;;;;;;;16.70;8.90;;;2.60;99.90;;;;;;5076772;28;20533;-72
2021/01/18 00:50:32;;;;;;;17.30;9.13;;;2.60;99.90;;;;;;5089299;28;20490;-72
2021/01/18 00:53:00;;;;;;;16.17;8.80;;;2.60;99.90;;;;;;5086376;28;20961;-71
2021/01/18 00:55:26;;;;;;;11.80;9.07;;;2.60;99.90;;;;;;5073770;28;20457;-73
2021/01/18 00:57:53;;;;;;;16.37;10.27;;;2.60;99.90;;;;;;5079504;28;20534;-72
2021/01/18 01:00:21;;;;;;;11.03;9.20;;;2.60;99.90;;;;;;5069039;28;20569;-71
2021/01/18 01:02:49;;;;;;;13.40;9.60;;;2.60;99.90;;;;;;5083973;28;20554;-71
2021/01/18 01:05:17;;;;;;;15.90;9.57;;;2.50;99.90;;;;;;5072401;28;20589;-71
2021/01/18 01:07:45;;;;;;;15.60;10.17;;;2.50;99.90;;;;;;5078013;28;20908;-73
2021/01/18 01:10:14;;;;;;;14.13;9.30;;;2.60;99.90;;;;;;5069744;28;20542;-72
2021/01/18 01:12:40;;;;;;;13.27;9.30;;;2.60;99.90;;;;;;5070777;28;20587;-74
2021/01/18 01:15:08;;;;;;;14.47;9.60;;;2.60;99.90;;;;;;5069696;28;20972;-72
2021/01/18 01:17:40;;;;;;;14.40;9.20;;;2.60;99.90;;;;;;5069754;28;20509;-72
2021/01/18 01:20:08;;;;;;;11.87;8.53;;;2.60;99.90;;;;;;5070377;28;20654;-73
2021/01/18 01:22:36;;;;;;;16.63;9.50;;;2.60;99.90;;;;;;5070275;28;20498;-72
2021/01/18 01:25:03;;;;;;;13.10;9.50;;;2.60;99.90;;;;;;5070858;28;20530;-72
2021/01/18 01:27:29;;;;;;;12.53;9.10;;;2.60;99.90;;;;;;5070802;28;20486;-72
2021/01/18 01:29:55;;;;;;;11.17;8.77;;;2.60;99.90;;;;;;5070060;28;20482;-72
2021/01/18 01:32:22;;;;;;;13.07;9.40;;;2.60;99.90;;;;;;5070368;28;20532;-72
2021/01/18 01:34:48;;;;;;;16.70;10.57;;;2.60;99.90;;;;;;5070479;28;20451;-72
2021/01/18 01:37:14;;;;;;;14.00;9.75;;;2.60;99.90;;;;;;5069981;28;20446;-72
2021/01/18 01:39:42;;;;;;;11.90;9.20;;;2.60;99.90;;;;;;5070046;28;20315;-73
2021/01/18 01:42:18;;;;;;;12.80;8.37;;;2.60;99.90;;;;;;5070442;28;20459;-72
2021/01/18 01:44:44;;;;;;;11.80;9.37;;;2.60;99.90;;;;;;5070268;28;20447;-72
2021/01/18 01:47:12;;;;;;;12.73;9.33;;;2.60;99.90;;;;;;5070241;28;20553;-72
2021/01/18 01:49:38;;;;;;;11.60;8.57;;;2.60;99.90;;;;;;5069482;28;20439;-72
2021/01/18 01:52:05;;;;;;;13.50;9.47;;;2.70;99.90;;;;;;5070197;28;21036;-71
2021/01/18 01:54:33;;;;;;;11.73;7.60;;;2.60;99.90;;;;;;5070466;28;20449;-73
2021/01/18 01:57:01;;;;;;;9.67;7.67;;;2.70;99.90;;;;;;5068601;28;21078;-71
2021/01/18 01:59:27;;;;;;;16.90;7.93;;;2.70;99.90;;;;;;5068957;28;20486;-72
2021/01/18 02:01:55;;;;;;;12.90;8.40;;;2.70;99.90;;;;;;5069991;28;20839;-72
2021/01/18 02:04:23;;;;;;;10.70;8.13;;;2.70;99.90;;;;;;5069937;28;20446;-72
2021/01/18 02:06:50;;;;;;;11.97;8.17;;;2.80;99.90;;;;;;5069721;28;20454;-73
2021/01/18 02:09:16;;;;;;;12.00;7.53;;;2.70;99.90;;;;;;5069147;28;20592;-72
2021/01/18 02:11:43;;;;;;;10.83;8.70;;;2.60;99.90;;;;;;5069587;28;20481;-72
2021/01/18 02:14:28;;;;;;;14.37;7.30;;;2.70;99.90;;;;;;5069722;28;21047;-72
2021/01/18 02:17:01;;;;;;;13.90;7.87;;;2.60;99.90;;;;;;5069649;28;20461;-72
2021/01/18 02:19:57;;;;;;;9.80;7.17;;;2.70;99.90;;;;;;5069095;28;21057;-72
2021/01/18 02:23:02;;;;;;;11.23;8.03;;;2.70;99.90;;;;;;5056501;28;20469;-72
2021/01/18 02:25:37;;;;;;;9.77;6.37;;;2.70;99.90;;;;;;5069523;28;20478;-73
2021/01/18 02:28:30;;;;;;;9.47;7.17;;;2.70;99.90;;;;;;5069420;28;20885;-71
2021/01/18 02:31:21;;;;;;;10.90;6.63;;;2.80;99.90;;;;;;5069161;28;20441;-72
2021/01/18 02:34:27;;;;;;;8.80;6.63;;;2.80;99.90;;;;;;5069708;28;20833;-72
2021/01/18 02:37:10;;;;;;;9.03;6.57;;;2.70;99.90;;;;;;5069677;28;20966;-72
2021/01/18 02:39:48;;;;;;;12.27;7.63;;;2.80;99.90;;;;;;5068734;28;21013;-72
2021/01/18 02:42:20;;;;;;;11.43;8.03;;;2.80;99.90;;;;;;5069482;28;20893;-72
2021/01/18 02:44:49;;;;;;;11.30;7.83;;;2.80;99.90;;;;;;5069320;28;20542;-74
2021/01/18 02:47:18;;;;;;;10.33;7.30;;;2.80;99.90;;;;;;5069453;28;20534;-72
2021/01/18 02:49:48;;;;;;;12.40;7.97;;;2.80;99.90;;;;;;5068917;28;20435;-71
2021/01/18 02:52:16;;;;;;;13.40;9.57;;;2.90;99.90;;;;;;5069226;28;20463;-72
2021/01/18 02:54:43;;;;;;;14.07;8.90;;;2.90;99.90;;;;;;5069582;28;20432;-73
2021/01/18 02:57:13;;;;;;;15.33;9.00;;;2.80;99.90;;;;;;5069340;28;20561;-72
2021/01/18 02:59:40;;;;;;;12.80;8.83;;;2.80;99.90;;;;;;5068455;28;21053;-72
2021/01/18 03:02:24;;;;;;;13.07;9.27;;;2.90;99.90;;;;;;5069103;28;20516;-71
2021/01/18 03:05:07;;;;;;;15.27;11.13;;;2.90;99.90;;;;;;5069162;28;20528;-73
2021/01/18 03:07:50;;;;;;;16.53;10.03;;;2.80;99.90;;;;;;5069395;28;20446;-73
2021/01/18 03:10:25;;;;;;;19.63;11.30;;;2.80;99.90;;;;;;5068915;28;20438;-72
2021/01/18 03:13:00;;;;;;;15.10;9.57;;;2.80;99.90;;;;;;5069179;28;20462;-72
2021/01/18 03:15:28;;;;;;;14.97;9.80;;;2.80;99.90;;;;;;5069152;28;20480;-72
2021/01/18 03:17:58;;;;;;;15.77;10.17;;;2.80;99.90;;;;;;5069052;28;20450;-72
2021/01/18 03:20:25;;;;;;;15.47;11.27;;;2.90;99.90;;;;;;5068645;28;20471;-72
2021/01/18 03:22:53;;;;;;;20.30;10.17;;;2.90;99.90;;;;;;5067791;28;20727;-73
2021/01/18 03:25:19;;;;;;;17.00;11.37;;;2.80;99.90;;;;;;5068269;28;20577;-72
2021/01/18 03:27:53;;;;;;;19.03;10.63;;;2.80;99.90;;;;;;5068420;28;20447;-73
2021/01/18 03:30:21;;;;;;;12.60;9.20;;;2.80;99.90;;;;;;5067146;28;20985;-73
2021/01/18 03:32:49;;;;;;;13.00;9.60;;;2.80;99.90;;;;;;5068735;28;20463;-72
2021/01/18 03:35:16;;;;;;;15.40;9.40;;;2.80;99.90;;;;;;5068977;28;20520;-72
2021/01/18 03:37:42;;;;;;;14.40;10.53;;;2.80;99.90;;;;;;5069171;28;20455;-72
2021/01/18 03:40:10;;;;;;;17.60;11.40;;;2.80;99.90;;;;;;5068481;28;20573;-73
2021/01/18 03:42:36;;;;;;;14.13;10.90;;;2.80;99.90;;;;;;5072454;28;20467;-72
2021/01/18 03:45:04;;;;;;;19.33;11.20;;;2.70;99.90;;;;;;5072516;28;20447;-73
2021/01/18 03:47:30;;;;;;;16.30;11.23;;;2.70;99.90;;;;;;5072478;28;20791;-73
2021/01/18 03:49:56;;;;;;;17.87;10.60;;;2.80;99.90;;;;;;5071816;28;20925;-72
2021/01/18 03:52:23;;;;;;;17.87;10.47;;;2.80;99.90;;;;;;5072480;28;21076;-72
2021/01/18 03:54:49;;;;;;;15.90;9.53;;;2.90;99.90;;;;;;5072177;28;20475;-73
2021/01/18 03:57:16;;;;;;;11.50;9.70;;;2.80;99.90;;;;;;5072063;28;20521;-72
2021/01/18 03:59:42;;;;;;;13.40;9.37;;;2.90;99.90;;;;;;5071377;28;20485;-71
2021/01/18 04:02:10;;;;;;;17.10;10.00;;;2.90;99.90;;;;;;5072240;28;20591;-72
2021/01/18 04:04:36;;;;;;;15.13;9.50;;;2.90;99.90;;;;;;5072207;28;20561;-72
2021/01/18 04:07:03;;;;;;;14.00;9.10;;;2.80;99.90;;;;;;5071996;28;20820;-72
2021/01/18 04:09:29;;;;;;;16.33;9.67;;;2.80;99.90;;;;;;5071403;28;20446;-72
2021/01/18 04:11:55;;;;;;;16.83;10.77;;;2.80;99.90;;;;;;5071870;28;20463;-73
2021/01/18 04:14:23;;;;;;;13.27;9.80;;;2.80;99.90;;;;;;5071730;28;20451;-73
2021/01/18 04:16:49;;;;;;;15.10;10.07;;;2.70;99.90;;;;;;5071669;28;20462;-72
2021/01/18 04:19:15;;;;;;;16.35;10.70;;;2.80;99.90;;;;;;5070832;28;20519;-73
2021/01/18 04:21:42;;;;;;;17.53;10.67;;;2.80;99.90;;;;;;5071689;28;20263;-73
2021/01/18 04:24:08;;;;;;;13.10;10.17;;;2.80;99.90;;;;;;5071784;28;20479;-73
2021/01/18 04:26:38;;;;;;;13.83;9.50;;;2.70;99.90;;;;;;5071447;28;20496;-73
2021/01/18 04:29:04;;;;;;;12.90;10.10;;;2.70;99.90;;;;;;5071046;28;20439;-73
2021/01/18 04:31:31;;;;;;;13.53;9.37;;;2.80;99.90;;;;;;5071468;28;20562;-73
2021/01/18 04:33:58;;;;;;;12.33;9.43;;;2.80;99.90;;;;;;5071402;28;20453;-72
2021/01/18 04:36:24;;;;;;;16.03;11.60;;;2.70;99.90;;;;;;5071220;28;20458;-73
2021/01/18 04:38:50;;;;;;;15.70;10.40;;;2.70;99.90;;;;;;5071233;28;20530;-73
2021/01/18 04:41:17;;;;;;;14.53;10.50;;;2.70;99.90;;;;;;5070730;28;20554;-74
2021/01/18 04:43:44;;;;;;;16.00;10.70;;;2.70;99.90;;;;;;5071108;28;20961;-74
2021/01/18 04:46:14;;;;;;;16.90;11.03;;;2.70;99.90;;;;;;5071165;28;20447;-73
2021/01/18 04:48:42;;;;;;;15.93;10.10;;;2.70;99.90;;;;;;5071426;28;20446;-73
2021/01/18 04:51:14;;;;;;;14.93;9.90;;;2.70;99.90;;;;;;5070273;28;20948;-73
2021/01/18 04:53:50;;;;;;;23.40;10.97;;;2.60;99.90;;;;;;5071119;28;20439;-74
2021/01/18 04:56:36;;;;;;;14.33;10.40;;;2.60;99.90;;;;;;5071132;28;20423;-72
2021/01/18 04:59:03;;;;;;;17.50;9.90;;;2.60;99.90;;;;;;5070820;28;20525;-73
2021/01/18 05:01:36;;;;;;;14.53;9.90;;;2.60;99.90;;;;;;5070787;28;20515;-73
2021/01/18 05:04:11;;;;;;;17.47;11.37;;;2.60;99.90;;;;;;5070953;28;20508;-74
2021/01/18 05:06:45;;;;;;;14.47;9.90;;;2.50;99.90;;;;;;5070594;28;20469;-73
2021/01/18 05:09:29;;;;;;;15.70;10.90;;;2.50;99.90;;;;;;5070061;28;20442;-73
2021/01/18 05:12:00;;;;;;;12.80;9.70;;;2.60;99.90;;;;;;5070687;28;20463;-74
2021/01/18 05:14:26;;;;;;;12.57;9.27;;;2.60;99.90;;;;;;5070557;28;20562;-72
2021/01/18 05:16:55;;;;;;;14.63;10.60;;;2.70;99.90;;;;;;5070310;28;20839;-73
2021/01/18 05:19:24;;;;;;;14.17;9.20;;;2.70;99.90;;;;;;5069782;28;20485;-72
2021/01/18 05:21:51;;;;;;;15.80;9.90;;;2.70;99.90;;;;;;5070383;28;20589;-72
2021/01/18 05:24:19;;;;;;;15.97;9.53;;;2.70;99.90;;;;;;5070418;28;20479;-73
2021/01/18 05:27:02;;;;;;;20.03;10.33;;;2.60;99.90;;;;;;5069794;28;20461;-73
2021/01/18 05:29:30;;;;;;;16.70;9.53;;;2.70;99.90;;;;;;5068937;28;20526;-72
2021/01/18 05:31:56;;;;;;;14.33;10.87;;;2.70;99.90;;;;;;5070271;28;20463;-72
2021/01/18 05:34:27;;;;;;;14.00;9.80;;;2.60;99.90;;;;;;5070494;28;20447;-73
2021/01/18 05:36:53;;;;;;;13.23;8.93;;;2.60;99.90;;;;;;5069970;28;20481;-72
2021/01/18 05:39:21;;;;;;;13.43;9.97;;;2.60;99.90;;;;;;5069434;28;20483;-73
2021/01/18 05:41:50;;;;;;;16.10;11.23;;;2.50;99.90;;;;;;5070032;28;20542;-73
2021/01/18 05:44:17;;;;;;;16.43;10.00;;;2.50;99.90;;;;;;5069980;28;20479;-72
2021/01/18 05:46:44;;;;;;;13.50;10.50;;;2.60;99.90;;;;;;5070120;28;20478;-72
2021/01/18 05:49:14;;;;;;;17.83;9.60;;;2.60;99.90;;;;;;5069764;28;20772;-74
2021/01/18 05:51:42;;;;;;;21.00;10.77;;;2.50;99.90;;;;;;5070155;28;20463;-75
2021/01/18 05:54:12;;;;;;;14.50;9.70;;;2.50;99.90;;;;;;5070024;28;20453;-73
2021/01/18 05:56:44;;;;;;;15.03;10.87;;;2.60;99.90;;;;;;5070243;28;20458;-73
2021/01/18 05:59:18;;;;;;;14.60;9.80;;;2.60;99.90;;;;;;5069630;28;20517;-71
2021/01/18 06:01:45;;;;;;;14.90;9.80;;;2.60;99.90;;;;;;5070015;28;20565;-73
2021/01/18 06:04:13;;;;;;;15.10;9.37;;;2.60;99.90;;;;;;5069528;28;20534;-72
2021/01/18 06:06:42;;;;;;;14.20;9.87;;;2.60;99.90;;;;;;5069749;28;20882;-73
2021/01/18 06:09:08;;;;;;;13.23;9.30;;;2.60;99.90;;;;;;5069265;28;20446;-72
2021/01/18 06:11:34;;;;;;;18.60;9.43;;;2.70;99.90;;;;;;5069829;28;20455;-73
2021/01/18 06:14:02;;;;;;;16.67;9.80;;;2.70;99.90;;;;;;5071482;28;21265;-73
2021/01/18 06:16:29;;;;;;;13.37;9.60;;;2.70;99.90;;;;;;5088291;28;20512;-72
2021/01/18 06:19:01;;;;;;;11.50;9.33;;;2.70;99.90;;;;;;5088135;28;20945;-72
2021/01/18 06:21:42;;;;;;;12.00;8.63;;;2.60;99.90;;;;;;5088029;28;20541;-72
2021/01/18 06:24:19;;;;;;;16.73;10.00;;;2.60;99.90;;;;;;5089407;28;20528;-69
2021/01/18 06:26:46;;;;;;;13.50;9.53;;;2.60;99.90;;;;;;5089510;28;20444;-74
2021/01/18 06:29:37;;;;;;;13.03;9.80;;;2.60;99.90;;;;;;5082197;28;20919;-72
2021/01/18 06:32:05;;;;;;;14.20;8.97;;;2.60;99.90;;;;;;5090757;28;20527;-72
2021/01/18 06:34:31;;;;;;;12.70;9.80;;;2.70;99.90;;;;;;5089300;28;20909;-73
2021/01/18 06:36:59;;;;;;;19.43;9.73;;;2.70;99.90;;;;;;5084585;28;20788;-75
2021/01/18 06:39:27;;;;;;;18.50;9.10;;;2.70;99.90;;;;;;5080191;28;20485;-72
2021/01/18 06:42:02;;;;;;;14.90;8.57;;;2.70;99.90;;;;;;5072130;28;20502;-73
2021/01/18 06:44:39;;;;;;;15.13;9.40;;;2.80;99.90;;;;;;5089831;28;20528;-71
2021/01/18 06:47:38;;;;;;;14.40;8.47;;;2.70;99.90;;;;;;5094401;28;20457;-71
2021/01/18 06:50:06;;;;;;;10.57;7.97;;;2.70;99.90;;;;;;5064604;28;20438;-73
2021/01/18 06:52:35;;;;;;;14.83;8.67;;;2.80;99.90;;;;;;5085792;28;20472;-73
2021/01/18 06:55:05;;;;;;;11.50;7.67;;;2.80;99.90;;;;;;5086819;28;20526;-73
2021/01/18 06:57:57;;;;;;;14.60;8.47;;;2.80;99.90;;;;;;5095599;28;20446;-73
2021/01/18 07:00:24;;;;;;;10.00;7.03;;;2.70;99.90;;;;;;5089524;28;20474;-74
2021/01/18 07:02:56;;;;;;;16.10;8.57;;;2.70;99.90;;;;;;5095462;28;20457;-71
2021/01/18 07:05:33;;;;;;;15.17;8.17;;;2.70;99.90;;;;;;5102108;28;20488;-72
2021/01/18 07:08:13;;;;;;;9.77;7.30;;;2.80;99.90;;;;;;5103925;28;20881;-74
2021/01/18 07:10:42;;;;;;;9.87;7.33;;;2.80;99.90;;;;;;5094869;28;20462;-74
2021/01/18 07:13:08;;;;;;;15.90;7.63;;;2.80;99.90;;;;;;5087175;28;20462;-73
2021/01/18 07:15:40;;;;;;;11.07;7.73;;;2.80;99.90;;;;;;5087333;28;20493;-72
2021/01/18 07:18:08;;;;;;;12.93;6.97;;;2.80;99.90;;;;;;5094468;28;20473;-72
2021/01/18 07:20:40;;;;;;;9.63;8.20;;;2.80;99.90;;;;;;5100026;28;21007;-73
2021/01/18 07:23:29;;;;;;;9.70;7.40;;;2.80;99.90;;;;;;5111279;28;20460;-73
2021/01/18 07:26:31;;;;;;;11.00;6.63;;;2.80;99.90;;;;;;5110577;28;20894;-72
2021/01/18 07:29:04;;;;;;;13.37;7.77;;;2.90;99.90;;;;;;5050105;28;20508;-72
2021/01/18 07:31:33;;;;;;;11.03;7.17;;;2.90;99.90;;;;;;5073976;28;20567;-71
2021/01/18 07:34:00;;;;;;;11.17;7.67;;;2.90;99.90;;;;;;5077384;28;20445;-73
2021/01/18 07:36:28;;;;;;;8.87;7.10;;;2.90;99.90;;;;;;5088639;28;20894;-71
2021/01/18 07:38:56;;;;;;;14.03;7.70;;;3.00;99.90;;;;;;5103620;28;20453;-72
2021/01/18 07:41:33;;;;;;;13.30;7.90;;;3.00;99.90;;;;;;5103228;28;20548;-72
2021/01/18 07:44:00;;;;;;;17.17;7.97;;;3.00;99.90;;;;;;5096256;28;20448;-71
2021/01/18 07:46:39;;;;;;;8.83;6.70;;;3.00;99.90;;;;;;5096077;28;20525;-72
2021/01/18 07:49:42;;;;;;;10.17;7.53;;;3.00;99.90;;;;;;5067228;28;20447;-73
2021/01/18 07:52:30;;;;;;;9.57;6.30;;;3.10;99.90;;;;;;5067236;28;20545;-72
2021/01/18 07:55:01;;;;;;;11.80;8.50;;;3.10;99.90;;;;;;5068293;28;20453;-73
2021/01/18 07:57:43;;;;;;;13.50;8.47;;;3.20;99.90;;;;;;5066608;28;20539;-72
2021/01/18 08:00:38;;;;;;;12.73;7.97;;;3.20;99.90;;;;;;5065784;28;20478;-72
2021/01/18 08:03:23;;;;;;;15.13;8.20;;;3.30;99.90;;;;;;5096640;28;20549;-72
2021/01/18 08:05:52;;;;;;;13.13;9.77;;;3.30;99.90;;;;;;5106066;28;20465;-71
2021/01/18 08:08:19;;;;;;;11.23;7.70;;;3.20;99.90;;;;;;5108803;28;20469;-71
2021/01/18 08:10:56;;;;;;;15.87;8.37;;;3.30;99.90;;;;;;5107664;28;21115;-72
2021/01/18 08:13:40;;;;;;;11.93;7.60;;;3.30;99.90;;;;;;5108541;28;20449;-72
2021/01/18 08:16:21;;;;;;;11.60;7.60;;;3.30;99.90;;;;;;5107647;28;20882;-73
2021/01/18 08:19:08;;;;;;;11.60;8.90;;;3.30;99.90;;;;;;5108180;28;20525;-73
2021/01/18 08:22:09;;;;;;;15.13;7.67;;;3.30;99.90;;;;;;5107819;28;20461;-73
2021/01/18 08:24:51;;;;;;;11.83;7.43;;;3.30;99.90;;;;;;5108136;28;20444;-73
2021/01/18 08:27:47;;;;;;;14.87;7.37;;;3.40;99.90;;;;;;5107395;28;20445;-73
2021/01/18 08:30:28;;;;;;;12.07;8.50;;;3.40;99.90;;;;;;5107381;28;20442;-73
2021/01/18 08:32:58;;;;;;;13.27;8.27;;;3.40;99.90;;;;;;5096685;28;20476;-72
2021/01/18 08:35:43;;;;;;;9.80;7.53;;;3.40;99.90;;;;;;5099055;28;20524;-73
2021/01/18 08:38:19;;;;;;;17.10;8.20;;;3.50;99.90;;;;;;5108013;28;20472;-72
2021/01/18 08:40:48;;;;;;;11.93;7.63;;;3.50;99.90;;;;;;5107346;28;20555;-72
2021/01/18 08:43:17;;;;;;;12.10;7.93;;;3.60;99.90;;;;;;5107519;28;20465;-72
2021/01/18 08:45:45;;;;;;;10.23;8.03;;;3.60;99.90;;;;;;5099354;28;21008;-72
2021/01/18 08:48:13;;;;;;;13.10;7.93;;;3.60;99.90;;;;;;5099481;28;20499;-73
2021/01/18 08:50:45;;;;;;;12.93;8.80;;;3.70;99.90;;;;;;5098342;28;20919;-73
2021/01/18 08:53:27;;;;;;;11.07;8.03;;;3.70;99.90;;;;;;5107878;28;20523;-72
2021/01/18 08:55:54;;;;;;;10.83;7.07;;;3.80;99.90;;;;;;5107046;28;20502;-73
2021/01/18 08:58:42;;;;;;;11.67;7.07;;;3.80;99.90;;;;;;5101174;28;20512;-70
2021/01/18 09:01:20;;;;;;;15.23;7.90;;;3.90;99.90;;;;;;5092440;28;20603;-73
2021/01/18 09:03:47;;;;;;;10.77;6.23;;;4.00;99.90;;;;;;5107980;28;20448;-73
2021/01/18 09:06:13;;;;;;;15.53;8.03;;;4.00;99.90;;;;;;5106396;28;20524;-74
2021/01/18 09:08:41;;;;;;;12.37;7.13;;;4.00;99.90;;;;;;5107637;28;20909;-73
2021/01/18 09:11:10;;;;;;;9.93;7.83;;;4.10;99.90;;;;;;5106367;28;20449;-70
2021/01/18 09:13:38;;;;;;;9.97;7.03;;;4.10;99.90;;;;;;5106355;28;20445;-71
2021/01/18 09:16:07;;;;;;;10.47;7.57;;;4.00;99.90;;;;;;5106899;28;20836;-72
2021/01/18 09:18:34;;;;;;;10.50;7.97;;;4.00;99.90;;;;;;5107025;28;20863;-74
2021/01/18 09:21:02;;;;;;;9.87;7.70;;;4.10;99.90;;;;;;5094036;28;20498;-71
2021/01/18 09:23:29;;;;;;;12.23;7.50;;;4.20;99.90;;;;;;5086426;28;20530;-71
2021/01/18 09:26:05;;;;;;;8.27;6.80;;;4.20;99.90;;;;;;5086066;28;20478;-73
2021/01/18 09:28:32;;;;;;;11.60;6.90;;;4.20;99.90;;;;;;5087058;28;20524;-75
2021/01/18 09:31:08;;;;;;;10.87;7.83;;;4.30;99.90;;;;;;5085591;28;20474;-68
2021/01/18 09:33:35;;;;;;;10.33;7.13;;;4.30;99.90;;;;;;5086518;28;20533;-72
2021/01/18 09:36:01;;;;;;;9.70;7.00;;;4.30;99.90;;;;;;5087277;28;20446;-73
2021/01/18 09:38:27;;;;;;;10.07;6.20;;;4.30;99.90;;;;;;5088021;28;20976;-74
2021/01/18 09:40:54;;;;;;;10.80;6.77;;;4.20;99.90;;;;;;5087539;28;20505;-70
2021/01/18 09:43:21;;;;;;;8.97;6.60;;;4.20;99.90;;;;;;5086522;28;20473;-71
2021/01/18 09:45:53;;;;;;;7.43;6.20;;;4.20;99.90;;;;;;5086401;28;20811;-70
2021/01/18 09:48:24;;;;;;;9.07;6.13;;;4.20;99.90;;;;;;5088016;28;20449;-70
2021/01/18 09:50:58;;;;;;;7.63;6.40;;;4.20;99.90;;;;;;5085714;28;20434;-69
2021/01/18 09:53:26;;;;;;;9.60;6.50;;;4.20;99.90;;;;;;5094676;28;20534;-69
2021/01/18 09:55:53;;;;;;;8.53;7.33;;;4.30;99.90;;;;;;5105381;28;20540;-69
2021/01/18 09:58:24;;;;;;;10.23;6.27;;;4.40;99.90;;;;;;5106010;28;20568;-70
2021/01/18 10:00:51;;;;;;;9.25;7.32;;;4.40;99.90;;;;;;5105179;28;20455;-68
2021/01/18 10:03:28;;;;;;;10.77;7.30;;;4.30;99.90;;;;;;5107367;28;20306;-69
2021/01/18 10:06:03;;;;;;;7.77;6.80;;;4.50;99.90;;;;;;5106550;28;20445;-74
2021/01/18 10:08:31;;;;;;;7.13;6.30;;;4.60;99.90;;;;;;5107617;28;20472;-70
2021/01/18 10:10:58;;;;;;;9.90;7.03;;;4.70;99.90;;;;;;5106242;28;21030;-69
2021/01/18 10:13:25;;;;;;;11.33;6.40;;;4.70;99.90;;;;;;5106946;28;20927;-72
2021/01/18 10:15:52;;;;;;;7.43;4.40;;;4.70;99.90;;;;;;5107558;28;20827;-69
2021/01/18 10:18:31;;;;;;;8.23;5.20;;;4.80;99.90;;;;;;5108098;28;20590;-72
2021/01/18 10:20:58;;;;;;;7.27;5.93;;;4.80;99.90;;;;;;5105710;28;20557;-72
2021/01/18 10:23:24;;;;;;;9.03;5.57;;;4.80;99.90;;;;;;5099835;28;20930;-71
2021/01/18 10:25:51;;;;;;;8.83;5.83;;;4.80;99.90;;;;;;5086583;28;20454;-71
2021/01/18 10:28:19;;;;;;;4.90;4.10;;;4.90;99.90;;;;;;5088100;28;20477;-73
2021/01/18 10:30:46;;;;;;;5.90;4.60;;;5.00;99.90;;;;;;5087704;28;20442;-73
2021/01/18 10:33:16;;;;;;;8.13;4.73;;;5.10;99.90;;;;;;5087261;28;20984;-74
2021/01/18 10:39:05;;;;;;;7.17;4.60;;;5.40;99.90;;;;;;5058977;28;20422;-71
2021/01/18 10:41:33;;;;;;;7.57;4.20;;;5.70;99.90;;;;;;5085399;28;20586;-72
2021/01/18 10:44:04;;;;;;;6.07;3.90;;;5.90;99.90;;;;;;5086200;28;20595;-71
2021/01/18 10:46:31;;;;;;;6.40;4.13;;;6.20;99.90;;;;;;5085224;28;20441;-72
2021/01/18 10:48:58;;;;;;;5.00;4.50;;;6.20;99.90;;;;;;5085127;28;21060;-70
2021/01/18 10:51:25;;;;;;;6.47;3.70;;;6.20;99.90;;;;;;5088711;28;20461;-72
2021/01/18 10:53:56;;;;;;;5.43;3.90;;;6.40;99.90;;;;;;5089848;28;20457;-71
2021/01/18 10:56:31;;;;;;;8.17;4.63;;;6.50;99.90;;;;;;5088528;28;20521;-73
2021/01/18 10:58:57;;;;;;;4.83;4.00;;;6.70;99.90;;;;;;5089703;28;20532;-74
2021/01/18 11:01:25;;;;;;;4.87;3.80;;;6.80;99.90;;;;;;5088654;28;20592;-71
2021/01/18 11:03:52;;;;;;;7.33;4.30;;;6.90;99.90;;;;;;5089553;28;20474;-71
2021/01/18 11:06:20;;;;;;;7.40;4.70;;;6.90;99.90;;;;;;5089025;28;21150;-69
2021/01/18 11:08:52;;;;;;;6.20;4.70;;;6.70;99.90;;;;;;5088436;28;20474;-70
2021/01/18 11:11:24;;;;;;;6.47;4.63;;;6.40;99.90;;;;;;5073617;28;20466;-70
2021/01/18 11:14:00;;;;;;;7.70;4.47;;;6.20;99.90;;;;;;5070018;28;20526;-70
2021/01/18 11:16:26;;;;;;;5.17;4.00;;;6.00;99.90;;;;;;5068810;28;20517;-73
2021/01/18 11:18:59;;;;;;;7.37;4.20;;;5.90;99.90;;;;;;5069346;28;20626;-70
2021/01/18 11:21:26;;;;;;;6.20;4.40;;;5.80;99.90;;;;;;5099050;28;20568;-70
2021/01/18 11:23:53;;;;;;;10.43;5.00;;;5.80;99.90;;;;;;5093310;28;20450;-69
2021/01/18 11:26:19;;;;;;;6.47;5.00;;;5.60;99.90;;;;;;5110118;28;20476;-70
2021/01/18 11:28:46;;;;;;;6.47;4.33;;;5.60;99.90;;;;;;5110067;28;20884;-71
2021/01/18 11:31:13;;;;;;;6.70;4.70;;;5.60;99.90;;;;;;5104003;27;20449;-69
2021/01/18 11:33:39;;;;;;;5.33;4.23;;;5.70;99.90;;;;;;5109790;28;20469;-70
2021/01/18 11:36:06;;;;;;;5.37;3.90;;;5.80;99.90;;;;;;5109597;28;20520;-70
2021/01/18 11:38:32;;;;;;;7.17;4.53;;;5.90;99.90;;;;;;5109438;28;20494;-72
2021/01/18 11:41:01;;;;;;;6.97;4.60;;;6.00;99.90;;;;;;5108803;28;20515;-72
2021/01/18 11:43:27;;;;;;;8.47;4.87;;;6.10;99.90;;;;;;5110083;27;20476;-71
2021/01/18 11:45:54;;;;;;;5.30;3.97;;;6.00;99.90;;;;;;5109137;28;20890;-71
2021/01/18 11:48:21;;;;;;;7.00;4.00;;;6.00;99.90;;;;;;5109639;28;20987;-73
2021/01/18 11:50:48;;;;;;;4.77;3.60;;;5.90;99.90;;;;;;5109029;28;20536;-69
2021/01/18 11:53:17;;;;;;;4.60;3.30;;;5.80;99.90;;;;;;5111491;28;20465;-69
2021/01/18 11:55:44;;;;;;;7.10;3.63;;;5.80;99.90;;;;;;5111316;28;20540;-71
2021/01/18 11:58:10;;;;;;;6.67;3.43;;;5.80;99.90;;;;;;5111259;28;20453;-70
2021/01/18 12:00:37;;;;;;;5.03;3.97;;;5.60;99.90;;;;;;5110561;27;20560;-70
2021/01/18 12:03:04;;;;;;;5.70;3.50;;;5.60;99.90;;;;;;5110740;28;20466;-70
2021/01/18 12:05:31;;;;;;;6.40;3.60;;;5.50;99.90;;;;;;5110847;28;20537;-70
2021/01/18 12:08:00;;;;;;;5.43;3.60;;;5.50;99.90;;;;;;5111595;28;20477;-69
2021/01/18 12:10:27;;;;;;;5.23;3.20;;;5.50;99.90;;;;;;5110189;28;20502;-71
2021/01/18 12:12:53;;;;;;;7.13;3.83;;;5.60;99.90;;;;;;5111245;28;20548;-70
2021/01/18 12:15:20;;;;;;;6.33;3.93;;;5.60;99.90;;;;;;5111297;28;20991;-69
2021/01/18 12:17:46;;;;;;;6.50;3.73;;;5.70;99.90;;;;;;5111078;28;20731;-70
2021/01/18 12:20:19;;;;;;;10.93;4.90;;;5.70;99.90;;;;;;5068563;28;20489;-69
2021/01/18 12:22:45;;;;;;;6.43;4.00;;;5.80;99.90;;;;;;5095202;28;20554;-69
2021/01/18 12:25:13;;;;;;;6.23;4.17;;;5.80;99.90;;;;;;5091839;28;20453;-74
2021/01/18 12:27:40;;;;;;;6.10;4.40;;;5.90;99.90;;;;;;5098065;28;20526;-75
2021/01/18 12:30:08;;;;;;;7.07;4.07;;;6.00;99.90;;;;;;5102892;28;20465;-74
2021/01/18 12:32:34;;;;;;;6.30;4.30;;;6.00;99.90;;;;;;5103339;28;20458;-73
2021/01/18 12:35:01;;;;;;;4.03;3.60;;;6.00;99.90;;;;;;5108673;28;20970;-73
2021/01/18 12:37:28;;;;;;;11.17;5.17;;;6.00;99.90;;;;;;5099931;28;20478;-73
2021/01/18 12:39:54;;;;;;;6.77;4.73;;;5.80;99.90;;;;;;5082862;28;20596;-72
2021/01/18 12:42:21;;;;;;;9.53;3.83;;;5.80;99.90;;;;;;5099622;28;20537;-72
2021/01/18 12:44:47;;;;;;;6.33;4.17;;;5.80;99.90;;;;;;5098665;28;20541;-71
2021/01/18 12:47:14;;;;;;;4.70;3.33;;;5.70;99.90;;;;;;5090240;28;20995;-71
2021/01/18 12:49:40;;;;;;;4.80;3.53;;;5.70;99.90;;;;;;5091581;28;20439;-71
2021/01/18 12:52:08;;;;;;;4.30;3.10;;;5.60;99.90;;;;;;5085758;28;20478;-71
2021/01/18 12:54:36;;;;;;;5.60;2.57;;;5.60;99.90;;;;;;5071606;28;20471;-71
2021/01/18 12:57:02;;;;;;;5.17;2.73;;;5.60;99.90;;;;;;5089986;28;20446;-71
2021/01/18 12:59:29;;;;;;;5.03;3.10;;;5.60;99.90;;;;;;5089873;28;20529;-70
2021/01/18 13:01:55;;;;;;;5.43;3.00;;;5.50;99.90;;;;;;5090173;28;20531;-71
2021/01/18 13:04:22;;;;;;;4.20;2.30;;;5.60;99.90;;;;;;5090739;28;20442;-71
2021/01/18 13:06:50;;;;;;;5.90;2.80;;;5.60;99.90;;;;;;5090176;28;20531;-71
2021/01/18 13:09:17;;;;;;;4.80;2.27;;;5.60;99.90;;;;;;5094590;28;20473;-71